Empire State — WDE4431 — position and weather

sailwx.info

Track history (hours):
 
Tides and Currents Weather Stations Pressure Air Temp Water Temp Dewpoint Dewpoint Depression Visibility Wind Speed Wind Dir Waves Ship Positions

Empire State

Owner: Crowley Petroleum Services, Jacksonville, FL. More information available from US FCC via Universal Licensing System and Coast Guard Vessel Documentation Center.

Last reported at 2015-Apr-28 09:05 UTC. Time now 2015-Apr-28 11:50 UTC.
Position N 32°53' W 120°38'.

Length 183 m; draft 10.7 m.

Type: Military. MMSI: 367353080.

Date/timePositionNaut miles runAvg speedWind from/ knotsBaromVisibWave heightAir tempDewpointWater temp
2015-Apr-28 09:05N 32°53' W 120°38'17 3.1
2015-Apr-28 03:28N 32°41' W 120°24'3 3.2
2015-Apr-28 02:33N 32°39' W 120°21'3 3.4
2015-Apr-28 01:33N 32°36' W 120°19'3 3.4
2015-Apr-28 00:33N 32°34' W 120°15'3 3.1
2015-Apr-27 23:33N 32°32' W 120°12'3 3.1
2015-Apr-27 22:33N 32°30' W 120°10'3 2.9
2015-Apr-27 21:33N 32°27' W 120°09'3 3.0
2015-Apr-27 20:34N 32°25' W 120°07'3 2.9
2015-Apr-27 19:33N 32°23' W 120°04'3 2.8
2015-Apr-27 18:34N 32°21' W 120°02'3 2.5
2015-Apr-27 17:33N 32°19' W 119°60'2 2.0
2015-Apr-27 16:34N 32°17' W 119°58'2 2.2
2015-Apr-27 15:34N 32°16' W 119°57'2 2.3
2015-Apr-27 14:34N 32°14' W 119°55'2 2.3
2015-Apr-27 13:33N 32°12' W 119°53'9010.7
2015-Apr-27 05:09N 32°22' W 118°07'712.4
2015-Apr-27 04:34N 32°26' W 118°00'1312.9
2015-Apr-27 03:33N 32°38' W 117°53'8 8.1
2015-Apr-27 02:33N 32°40' W 117°44'1312.6
2015-Apr-27 01:33N 32°37' W 117°29'1212.2
2015-Apr-27 00:34N 32°36' W 117°15'6 5.6
2015-Apr-26 23:34N 32°42' W 117°14'0 0.0
2015-Apr-26 22:32N 32°42' W 117°14'0 0.0
2015-Apr-26 21:32N 32°42' W 117°14'0 0.0
2015-Apr-26 20:32N 32°42' W 117°14'0 0.0
2015-Apr-26 19:32N 32°42' W 117°14'0 0.0
2015-Apr-26 18:26N 32°42' W 117°14'0 0.0
2015-Apr-26 17:32N 32°42' W 117°14'0 0.0
2015-Apr-26 16:32N 32°42' W 117°14'0 0.1
2015-Apr-26 15:32N 32°42' W 117°14'0 0.1
2015-Apr-26 14:32N 32°42' W 117°14'0 0.0
2015-Apr-26 13:32N 32°42' W 117°14'0 0.0
2015-Apr-26 12:32N 32°42' W 117°14'0 0.0
2015-Apr-26 11:14N 32°42' W 117°14'0 0.0
2015-Apr-26 10:26N 32°42' W 117°14'0 0.0
2015-Apr-26 09:32N 32°42' W 117°14'0 0.0
2015-Apr-26 08:26N 32°42' W 117°14'0 0.0
2015-Apr-26 07:14N 32°42' W 117°14'0 0.0
2015-Apr-26 06:32N 32°42' W 117°14'0 0.0
2015-Apr-26 05:32N 32°42' W 117°14'0 0.0
2015-Apr-26 04:32N 32°42' W 117°14'0 0.0
2015-Apr-26 03:32N 32°42' W 117°14'0 0.0
2015-Apr-26 02:32N 32°42' W 117°14'0 0.0
2015-Apr-26 01:23N 32°42' W 117°14'0 0.0
2015-Apr-25 23:32N 32°42' W 117°14'0 0.0
2015-Apr-25 22:32N 32°42' W 117°14'0 0.0
2015-Apr-25 21:32N 32°42' W 117°14'0 0.0
2015-Apr-25 20:26N 32°42' W 117°14'0 0.0
2015-Apr-25 19:32N 32°42' W 117°14'0 0.0
2015-Apr-25 18:32N 32°42' W 117°14'0 0.0
2015-Apr-25 17:26N 32°42' W 117°14'0 0.0
2015-Apr-25 16:32N 32°42' W 117°14'0 0.0
2015-Apr-25 15:32N 32°42' W 117°14'0 0.0
2015-Apr-25 14:32N 32°42' W 117°14'0 0.0
2015-Apr-25 13:32N 32°42' W 117°14'0 0.0
2015-Apr-25 12:32N 32°42' W 117°14'0 0.0
2015-Apr-25 11:26N 32°42' W 117°14'0 0.0
2015-Apr-25 10:26N 32°42' W 117°14'0 0.0
2015-Apr-25 09:32N 32°42' W 117°14'0 0.0
2015-Apr-25 08:26N 32°42' W 117°14'0 0.0
2015-Apr-25 07:32N 32°42' W 117°14'0 0.0
2015-Apr-25 06:26N 32°42' W 117°14'0 0.0
2015-Apr-25 05:26N 32°42' W 117°14'0 0.0
2015-Apr-25 04:26N 32°42' W 117°14'0 0.0
2015-Apr-25 03:26N 32°42' W 117°14'0 0.0
2015-Apr-25 02:32N 32°42' W 117°14'0 0.0
2015-Apr-25 01:32N 32°42' W 117°14'0 0.0
2015-Apr-25 00:20N 32°42' W 117°14'0 0.0
2015-Apr-24 23:20N 32°42' W 117°14'0 0.0
2015-Apr-24 22:26N 32°42' W 117°14'0 0.0
2015-Apr-24 21:32N 32°42' W 117°14'1 1.5
2015-Apr-24 20:33N 32°41' W 117°14'5 5.2
2015-Apr-24 19:33N 32°37' W 117°18'8 8.2
2015-Apr-24 18:33N 32°37' W 117°27'9 8.8
2015-Apr-24 17:34N 32°38' W 117°38'1312.7
2015-Apr-24 16:33N 32°37' W 117°53'22112.0
2015-Apr-23 22:11N 34°18' W 121°49'914.1
2015-Apr-23 21:33N 34°25' W 121°56'1413.9
2015-Apr-23 20:33N 34°35' W 122°08'1313.2
2015-Apr-23 19:33N 34°44' W 122°19'1212.5
2015-Apr-23 18:33N 34°54' W 122°29'1312.9
2015-Apr-23 17:33N 35°03' W 122°39'1413.6
2015-Apr-23 16:32N 35°14' W 122°50'1313.6
2015-Apr-23 15:33N 35°24' W 123°01'1313.4
2015-Apr-23 14:33N 35°35' W 123°10'1413.6
2015-Apr-23 13:33N 35°48' W 123°13'1413.8
2015-Apr-23 12:34N 36°02' W 123°17'1413.8
2015-Apr-23 11:33N 36°15' W 123°21'1914.1
2015-Apr-23 10:13N 36°34' W 123°26'914.0
2015-Apr-23 09:33N 36°43' W 123°28'1413.5
2015-Apr-23 08:29N 36°57' W 123°31'1313.0
2015-Apr-23 07:30N 37°08' W 123°23'1312.7
2015-Apr-23 06:27N 37°20' W 123°14'1112.0
2015-Apr-23 05:33N 37°29' W 123°07'1110.8
2015-Apr-23 04:34N 37°37' W 122°58'1111.0
2015-Apr-23 03:33N 37°42' W 122°46'1110.9
2015-Apr-23 02:34N 37°47' W 122°34'9 9.1
2015-Apr-23 01:33N 37°54' W 122°26'9 8.9
2015-Apr-23 00:33N 38°02' W 122°22'5 5.0
2015-Apr-22 23:33N 38°04' W 122°16'1 0.9
2015-Apr-22 22:28N 38°04' W 122°15'0 0.0
2015-Apr-22 21:22N 38°04' W 122°15'0 0.0
2015-Apr-22 20:28N 38°04' W 122°15'0 0.0
2015-Apr-22 19:22N 38°04' W 122°15'0 0.0
2015-Apr-21 11:04N 38°04' W 122°15'0 0.0
2015-Apr-21 10:16N 38°04' W 122°15'0 0.0
2015-Apr-20 17:16N 38°04' W 122°15'0 0.0
2015-Apr-20 04:22N 38°04' W 122°15'0 0.0
2015-Apr-20 03:22N 38°04' W 122°15'0 0.0
2015-Apr-20 00:21N 38°04' W 122°15'6 7.6
2015-Apr-19 23:33N 38°02' W 122°22'10 9.8
2015-Apr-19 22:33N 37°53' W 122°25'7 7.2
2015-Apr-19 21:33N 37°48' W 122°32'1111.3
2015-Apr-19 20:33N 37°42' W 122°45'1010.1
2015-Apr-19 19:34N 37°36' W 122°55'10 9.8
2015-Apr-19 18:34N 37°31' W 123°05'1110.7
2015-Apr-19 17:32N 37°25' W 123°17'1010.0
2015-Apr-19 16:33N 37°20' W 123°28'5 5.2
2015-Apr-19 15:31N 37°17' W 123°23'7 6.5
2015-Apr-19 14:30N 37°11' W 123°27'9 9.1
2015-Apr-19 13:33N 37°06' W 123°35'1111.2
2015-Apr-19 12:33N 36°58' W 123°46'10 8.4
2015-Apr-19 11:18N 36°48' W 123°49'1110.0
2015-Apr-19 10:12N 36°38' W 123°44'16 9.9
2015-Apr-19 08:33N 36°23' W 123°37'1010.1
2015-Apr-19 07:33N 36°13' W 123°33'10 9.8
2015-Apr-19 06:33N 36°04' W 123°29'9 9.4
2015-Apr-19 05:33N 35°55' W 123°25'10 9.6
2015-Apr-19 04:29N 35°45' W 123°20'1010.3
2015-Apr-19 03:33N 35°36' W 123°16'1010.2
2015-Apr-19 02:33N 35°27' W 123°12'1010.3
2015-Apr-19 01:33N 35°17' W 123°07'1010.1
2015-Apr-19 00:33N 35°08' W 123°03'1010.0
2015-Apr-18 23:33N 34°58' W 122°59'1010.1
2015-Apr-18 22:33N 34°51' W 122°51'1010.5
2015-Apr-18 21:33N 34°43' W 122°42'1010.3
2015-Apr-18 20:33N 34°36' W 122°33'1110.3
2015-Apr-18 19:31N 34°28' W 122°24'1010.2
2015-Apr-18 18:30N 34°21' W 122°15'1010.1
2015-Apr-18 17:33N 34°14' W 122°07'1010.2
2015-Apr-18 16:33N 34°06' W 121°59'1110.5
2015-Apr-18 15:33N 33°58' W 121°50'1110.6
2015-Apr-18 14:33N 33°51' W 121°42'9 9.0
2015-Apr-18 13:33N 33°44' W 121°34'8 7.8
2015-Apr-18 12:33N 33°39' W 121°28'8 8.0
2015-Apr-18 11:33N 33°33' W 121°21'8 8.1
2015-Apr-18 10:34N 33°27' W 121°15'8 8.2
2015-Apr-18 09:34N 33°21' W 121°08'  
Track history (hours):
 
Tides and Currents Weather Stations Pressure Air Temp Water Temp Dewpoint Dewpoint Depression Visibility Wind Speed Wind Dir Waves Ship Positions

Empire State

Owner: Crowley Petroleum Services, Jacksonville, FL. More information available from US FCC via Universal Licensing System and Coast Guard Vessel Documentation Center.

Last reported at 2015-Apr-28 09:05 UTC. Time now 2015-Apr-28 11:50 UTC.
Position N 32°53' W 120°38'.

Length 183 m; draft 10.7 m.

Type: Military. MMSI: 367353080.

Date/timePositionNaut miles runAvg speedWind from/ knotsBaromVisibWave heightAir tempDewpointWater temp
2015-Apr-28 09:05N 32°53' W 120°38'17 3.1
2015-Apr-28 03:28N 32°41' W 120°24'3 3.2
2015-Apr-28 02:33N 32°39' W 120°21'3 3.4
2015-Apr-28 01:33N 32°36' W 120°19'3 3.4
2015-Apr-28 00:33N 32°34' W 120°15'3 3.1
2015-Apr-27 23:33N 32°32' W 120°12'3 3.1
2015-Apr-27 22:33N 32°30' W 120°10'3 2.9
2015-Apr-27 21:33N 32°27' W 120°09'3 3.0
2015-Apr-27 20:34N 32°25' W 120°07'3 2.9
2015-Apr-27 19:33N 32°23' W 120°04'3 2.8
2015-Apr-27 18:34N 32°21' W 120°02'3 2.5
2015-Apr-27 17:33N 32°19' W 119°60'2 2.0
2015-Apr-27 16:34N 32°17' W 119°58'2 2.2
2015-Apr-27 15:34N 32°16' W 119°57'2 2.3
2015-Apr-27 14:34N 32°14' W 119°55'2 2.3
2015-Apr-27 13:33N 32°12' W 119°53'9010.7
2015-Apr-27 05:09N 32°22' W 118°07'712.4
2015-Apr-27 04:34N 32°26' W 118°00'1312.9
2015-Apr-27 03:33N 32°38' W 117°53'8 8.1
2015-Apr-27 02:33N 32°40' W 117°44'1312.6
2015-Apr-27 01:33N 32°37' W 117°29'1212.2
2015-Apr-27 00:34N 32°36' W 117°15'6 5.6
2015-Apr-26 23:34N 32°42' W 117°14'0 0.0
2015-Apr-26 22:32N 32°42' W 117°14'0 0.0
2015-Apr-26 21:32N 32°42' W 117°14'0 0.0
2015-Apr-26 20:32N 32°42' W 117°14'0 0.0
2015-Apr-26 19:32N 32°42' W 117°14'0 0.0
2015-Apr-26 18:26N 32°42' W 117°14'0 0.0
2015-Apr-26 17:32N 32°42' W 117°14'0 0.0
2015-Apr-26 16:32N 32°42' W 117°14'0 0.1
2015-Apr-26 15:32N 32°42' W 117°14'0 0.1
2015-Apr-26 14:32N 32°42' W 117°14'0 0.0
2015-Apr-26 13:32N 32°42' W 117°14'0 0.0
2015-Apr-26 12:32N 32°42' W 117°14'0 0.0
2015-Apr-26 11:14N 32°42' W 117°14'0 0.0
2015-Apr-26 10:26N 32°42' W 117°14'0 0.0
2015-Apr-26 09:32N 32°42' W 117°14'0 0.0
2015-Apr-26 08:26N 32°42' W 117°14'0 0.0
2015-Apr-26 07:14N 32°42' W 117°14'0 0.0
2015-Apr-26 06:32N 32°42' W 117°14'0 0.0
2015-Apr-26 05:32N 32°42' W 117°14'0 0.0
2015-Apr-26 04:32N 32°42' W 117°14'0 0.0
2015-Apr-26 03:32N 32°42' W 117°14'0 0.0
2015-Apr-26 02:32N 32°42' W 117°14'0 0.0
2015-Apr-26 01:23N 32°42' W 117°14'0 0.0
2015-Apr-25 23:32N 32°42' W 117°14'0 0.0
2015-Apr-25 22:32N 32°42' W 117°14'0 0.0
2015-Apr-25 21:32N 32°42' W 117°14'0 0.0
2015-Apr-25 20:26N 32°42' W 117°14'0 0.0
2015-Apr-25 19:32N 32°42' W 117°14'0 0.0
2015-Apr-25 18:32N 32°42' W 117°14'0 0.0
2015-Apr-25 17:26N 32°42' W 117°14'0 0.0
2015-Apr-25 16:32N 32°42' W 117°14'0 0.0
2015-Apr-25 15:32N 32°42' W 117°14'0 0.0
2015-Apr-25 14:32N 32°42' W 117°14'0 0.0
2015-Apr-25 13:32N 32°42' W 117°14'0 0.0
2015-Apr-25 12:32N 32°42' W 117°14'0 0.0
2015-Apr-25 11:26N 32°42' W 117°14'0 0.0
2015-Apr-25 10:26N 32°42' W 117°14'0 0.0
2015-Apr-25 09:32N 32°42' W 117°14'0 0.0
2015-Apr-25 08:26N 32°42' W 117°14'0 0.0
2015-Apr-25 07:32N 32°42' W 117°14'0 0.0
2015-Apr-25 06:26N 32°42' W 117°14'0 0.0
2015-Apr-25 05:26N 32°42' W 117°14'0 0.0
2015-Apr-25 04:26N 32°42' W 117°14'0 0.0
2015-Apr-25 03:26N 32°42' W 117°14'0 0.0
2015-Apr-25 02:32N 32°42' W 117°14'0 0.0
2015-Apr-25 01:32N 32°42' W 117°14'0 0.0
2015-Apr-25 00:20N 32°42' W 117°14'0 0.0
2015-Apr-24 23:20N 32°42' W 117°14'0 0.0
2015-Apr-24 22:26N 32°42' W 117°14'0 0.0
2015-Apr-24 21:32N 32°42' W 117°14'1 1.5
2015-Apr-24 20:33N 32°41' W 117°14'5 5.2
2015-Apr-24 19:33N 32°37' W 117°18'8 8.2
2015-Apr-24 18:33N 32°37' W 117°27'9 8.8
2015-Apr-24 17:34N 32°38' W 117°38'1312.7
2015-Apr-24 16:33N 32°37' W 117°53'22112.0
2015-Apr-23 22:11N 34°18' W 121°49'914.1
2015-Apr-23 21:33N 34°25' W 121°56'1413.9
2015-Apr-23 20:33N 34°35' W 122°08'1313.2
2015-Apr-23 19:33N 34°44' W 122°19'1212.5
2015-Apr-23 18:33N 34°54' W 122°29'1312.9
2015-Apr-23 17:33N 35°03' W 122°39'1413.6
2015-Apr-23 16:32N 35°14' W 122°50'1313.6
2015-Apr-23 15:33N 35°24' W 123°01'1313.4
2015-Apr-23 14:33N 35°35' W 123°10'1413.6
2015-Apr-23 13:33N 35°48' W 123°13'1413.8
2015-Apr-23 12:34N 36°02' W 123°17'1413.8
2015-Apr-23 11:33N 36°15' W 123°21'1914.1
2015-Apr-23 10:13N 36°34' W 123°26'914.0
2015-Apr-23 09:33N 36°43' W 123°28'1413.5
2015-Apr-23 08:29N 36°57' W 123°31'1313.0
2015-Apr-23 07:30N 37°08' W 123°23'1312.7
2015-Apr-23 06:27N 37°20' W 123°14'1112.0
2015-Apr-23 05:33N 37°29' W 123°07'1110.8
2015-Apr-23 04:34N 37°37' W 122°58'1111.0
2015-Apr-23 03:33N 37°42' W 122°46'1110.9
2015-Apr-23 02:34N 37°47' W 122°34'9 9.1
2015-Apr-23 01:33N 37°54' W 122°26'9 8.9
2015-Apr-23 00:33N 38°02' W 122°22'5 5.0
2015-Apr-22 23:33N 38°04' W 122°16'1 0.9
2015-Apr-22 22:28N 38°04' W 122°15'0 0.0
2015-Apr-22 21:22N 38°04' W 122°15'0 0.0
2015-Apr-22 20:28N 38°04' W 122°15'0 0.0
2015-Apr-22 19:22N 38°04' W 122°15'0 0.0
2015-Apr-21 11:04N 38°04' W 122°15'0 0.0
2015-Apr-21 10:16N 38°04' W 122°15'0 0.0
2015-Apr-20 17:16N 38°04' W 122°15'0 0.0
2015-Apr-20 04:22N 38°04' W 122°15'0 0.0
2015-Apr-20 03:22N 38°04' W 122°15'0 0.0
2015-Apr-20 00:21N 38°04' W 122°15'6 7.6
2015-Apr-19 23:33N 38°02' W 122°22'10 9.8
2015-Apr-19 22:33N 37°53' W 122°25'7 7.2
2015-Apr-19 21:33N 37°48' W 122°32'1111.3
2015-Apr-19 20:33N 37°42' W 122°45'1010.1
2015-Apr-19 19:34N 37°36' W 122°55'10 9.8
2015-Apr-19 18:34N 37°31' W 123°05'1110.7
2015-Apr-19 17:32N 37°25' W 123°17'1010.0
2015-Apr-19 16:33N 37°20' W 123°28'5 5.2
2015-Apr-19 15:31N 37°17' W 123°23'7 6.5
2015-Apr-19 14:30N 37°11' W 123°27'9 9.1
2015-Apr-19 13:33N 37°06' W 123°35'1111.2
2015-Apr-19 12:33N 36°58' W 123°46'10 8.4
2015-Apr-19 11:18N 36°48' W 123°49'1110.0
2015-Apr-19 10:12N 36°38' W 123°44'16 9.9
2015-Apr-19 08:33N 36°23' W 123°37'1010.1
2015-Apr-19 07:33N 36°13' W 123°33'10 9.8
2015-Apr-19 06:33N 36°04' W 123°29'9 9.4
2015-Apr-19 05:33N 35°55' W 123°25'10 9.6
2015-Apr-19 04:29N 35°45' W 123°20'1010.3
2015-Apr-19 03:33N 35°36' W 123°16'1010.2
2015-Apr-19 02:33N 35°27' W 123°12'1010.3
2015-Apr-19 01:33N 35°17' W 123°07'1010.1
2015-Apr-19 00:33N 35°08' W 123°03'1010.0
2015-Apr-18 23:33N 34°58' W 122°59'1010.1
2015-Apr-18 22:33N 34°51' W 122°51'1010.5
2015-Apr-18 21:33N 34°43' W 122°42'1010.3
2015-Apr-18 20:33N 34°36' W 122°33'1110.3
2015-Apr-18 19:31N 34°28' W 122°24'1010.2
2015-Apr-18 18:30N 34°21' W 122°15'1010.1
2015-Apr-18 17:33N 34°14' W 122°07'1010.2
2015-Apr-18 16:33N 34°06' W 121°59'1110.5
2015-Apr-18 15:33N 33°58' W 121°50'1110.6
2015-Apr-18 14:33N 33°51' W 121°42'9 9.0
2015-Apr-18 13:33N 33°44' W 121°34'8 7.8
2015-Apr-18 12:33N 33°39' W 121°28'8 8.0
2015-Apr-18 11:33N 33°33' W 121°21'8 8.1
2015-Apr-18 10:34N 33°27' W 121°15'8 8.2
2015-Apr-18 09:34N 33°21' W 121°08'  

Dump ship's entire track history